sensor_id;sensor_type;location;lat;lon;timestamp;P1;P2;P0
80692;PMS5003;70055;39.436;-77.514;2024-03-06T00:00:35;3;3;
80692;PMS5003;70055;39.436;-77.514;2024-03-06T00:03:06;3;3;
80692;PMS5003;70055;39.436;-77.514;2024-03-06T00:05:33;3;3;
80692;PMS5003;70055;39.436;-77.514;2024-03-06T00:08:01;2;2;
80692;PMS5003;70055;39.436;-77.514;2024-03-06T00:10:32;2;2;
80692;PMS5003;70055;39.436;-77.514;2024-03-06T00:13:01;6;6;
80692;PMS5003;70055;39.436;-77.514;2024-03-06T00:15:30;7;7;
80692;PMS5003;70055;39.436;-77.514;2024-03-06T00:17:59;7;7;
80692;PMS5003;70055;39.436;-77.514;2024-03-06T00:20:28;5;5;
80692;PMS5003;70055;39.436;-77.514;2024-03-06T00:22:57;4;4;
80692;PMS5003;70055;39.436;-77.514;2024-03-06T00:25:27;3;3;
80692;PMS5003;70055;39.436;-77.514;2024-03-06T00:27:56;4;3;
80692;PMS5003;70055;39.436;-77.514;2024-03-06T00:30:25;4;4;
80692;PMS5003;70055;39.436;-77.514;2024-03-06T00:32:53;4;4;
80692;PMS5003;70055;39.436;-77.514;2024-03-06T00:35:22;5;4;
80692;PMS5003;70055;39.436;-77.514;2024-03-06T00:37:51;4;4;
80692;PMS5003;70055;39.436;-77.514;2024-03-06T00:40:20;6;6;
80692;PMS5003;70055;39.436;-77.514;2024-03-06T00:42:49;5;5;
80692;PMS5003;70055;39.436;-77.514;2024-03-06T00:45:16;6;6;
80692;PMS5003;70055;39.436;-77.514;2024-03-06T00:47:47;7;7;
80692;PMS5003;70055;39.436;-77.514;2024-03-06T00:50:15;6;6;
80692;PMS5003;70055;39.436;-77.514;2024-03-06T00:52:46;9;7;
80692;PMS5003;70055;39.436;-77.514;2024-03-06T00:55:16;7;7;
80692;PMS5003;70055;39.436;-77.514;2024-03-06T00:57:44;7;7;
80692;PMS5003;70055;39.436;-77.514;2024-03-06T01:00:13;7;7;
80692;PMS5003;70055;39.436;-77.514;2024-03-06T01:02:42;6;6;
80692;PMS5003;70055;39.436;-77.514;2024-03-06T01:05:10;5;5;
80692;PMS5003;70055;39.436;-77.514;2024-03-06T01:07:39;9;7;
80692;PMS5003;70055;39.436;-77.514;2024-03-06T01:10:09;5;5;
80692;PMS5003;70055;39.436;-77.514;2024-03-06T01:12:38;5;5;
80692;PMS5003;70055;39.436;-77.514;2024-03-06T01:15:07;5;5;
80692;PMS5003;70055;39.436;-77.514;2024-03-06T01:17:37;5;5;
80692;PMS5003;70055;39.436;-77.514;2024-03-06T01:20:07;4;4;
80692;PMS5003;70055;39.436;-77.514;2024-03-06T01:22:38;5;5;
80692;PMS5003;70055;39.436;-77.514;2024-03-06T01:25:07;4;4;
80692;PMS5003;70055;39.436;-77.514;2024-03-06T01:27:35;4;4;
80692;PMS5003;70055;39.436;-77.514;2024-03-06T01:30:04;5;5;
80692;PMS5003;70055;39.436;-77.514;2024-03-06T01:32:38;4;4;
80692;PMS5003;70055;39.436;-77.514;2024-03-06T01:35:10;4;4;
80692;PMS5003;70055;39.436;-77.514;2024-03-06T01:37:42;4;4;
80692;PMS5003;70055;39.436;-77.514;2024-03-06T01:40:12;5;5;
80692;PMS5003;70055;39.436;-77.514;2024-03-06T01:42:42;5;4;
80692;PMS5003;70055;39.436;-77.514;2024-03-06T01:45:10;5;5;
80692;PMS5003;70055;39.436;-77.514;2024-03-06T01:47:39;6;5;
80692;PMS5003;70055;39.436;-77.514;2024-03-06T01:50:09;4;4;
80692;PMS5003;70055;39.436;-77.514;2024-03-06T01:52:39;6;6;
80692;PMS5003;70055;39.436;-77.514;2024-03-06T01:55:11;4;4;
80692;PMS5003;70055;39.436;-77.514;2024-03-06T01:57:41;5;5;
80692;PMS5003;70055;39.436;-77.514;2024-03-06T02:00:10;4;4;
80692;PMS5003;70055;39.436;-77.514;2024-03-06T02:02:40;6;6;
80692;PMS5003;70055;39.436;-77.514;2024-03-06T02:05:09;6;6;
80692;PMS5003;70055;39.436;-77.514;2024-03-06T02:07:39;6;5;
80692;PMS5003;70055;39.436;-77.514;2024-03-06T02:10:10;5;5;
80692;PMS5003;70055;39.436;-77.514;2024-03-06T02:12:40;6;6;
80692;PMS5003;70055;39.436;-77.514;2024-03-06T02:15:08;6;6;
80692;PMS5003;70055;39.436;-77.514;2024-03-06T02:17:41;5;5;
80692;PMS5003;70055;39.436;-77.514;2024-03-06T02:20:11;6;6;
80692;PMS5003;70055;39.436;-77.514;2024-03-06T02:22:43;6;6;
80692;PMS5003;70055;39.436;-77.514;2024-03-06T02:25:12;5;5;
80692;PMS5003;70055;39.436;-77.514;2024-03-06T02:27:41;5;5;
80692;PMS5003;70055;39.436;-77.514;2024-03-06T02:30:09;6;6;
80692;PMS5003;70055;39.436;-77.514;2024-03-06T02:32:41;6;6;
80692;PMS5003;70055;39.436;-77.514;2024-03-06T02:35:09;4;4;
80692;PMS5003;70055;39.436;-77.514;2024-03-06T02:37:37;7;7;
80692;PMS5003;70055;39.436;-77.514;2024-03-06T02:40:06;5;5;
80692;PMS5003;70055;39.436;-77.514;2024-03-06T02:42:35;7;7;
80692;PMS5003;70055;39.436;-77.514;2024-03-06T02:45:04;7;7;
80692;PMS5003;70055;39.436;-77.514;2024-03-06T02:47:33;6;6;
80692;PMS5003;70055;39.436;-77.514;2024-03-06T02:50:01;6;5;
80692;PMS5003;70055;39.436;-77.514;2024-03-06T02:52:29;6;6;
80692;PMS5003;70055;39.436;-77.514;2024-03-06T02:54:59;5;5;
80692;PMS5003;70055;39.436;-77.514;2024-03-06T02:57:28;5;5;
80692;PMS5003;70055;39.436;-77.514;2024-03-06T02:59:56;5;5;
80692;PMS5003;70055;39.436;-77.514;2024-03-06T03:02:26;5;5;
80692;PMS5003;70055;39.436;-77.514;2024-03-06T03:04:54;8;8;
80692;PMS5003;70055;39.436;-77.514;2024-03-06T03:07:22;6;6;
80692;PMS5003;70055;39.436;-77.514;2024-03-06T03:09:51;6;6;
80692;PMS5003;70055;39.436;-77.514;2024-03-06T03:12:19;6;6;
80692;PMS5003;70055;39.436;-77.514;2024-03-06T03:14:47;5;5;
80692;PMS5003;70055;39.436;-77.514;2024-03-06T03:17:16;7;7;
80692;PMS5003;70055;39.436;-77.514;2024-03-06T03:19:44;8;8;
80692;PMS5003;70055;39.436;-77.514;2024-03-06T03:22:13;8;8;
80692;PMS5003;70055;39.436;-77.514;2024-03-06T03:24:41;6;6;
80692;PMS5003;70055;39.436;-77.514;2024-03-06T03:27:10;8;7;
80692;PMS5003;70055;39.436;-77.514;2024-03-06T03:29:38;6;6;
80692;PMS5003;70055;39.436;-77.514;2024-03-06T03:32:06;6;6;
80692;PMS5003;70055;39.436;-77.514;2024-03-06T03:34:34;10;8;
80692;PMS5003;70055;39.436;-77.514;2024-03-06T03:37:02;8;8;
80692;PMS5003;70055;39.436;-77.514;2024-03-06T03:39:30;9;9;
80692;PMS5003;70055;39.436;-77.514;2024-03-06T03:42:01;8;8;
80692;PMS5003;70055;39.436;-77.514;2024-03-06T03:44:29;7;7;
80692;PMS5003;70055;39.436;-77.514;2024-03-06T03:46:59;12;12;
80692;PMS5003;70055;39.436;-77.514;2024-03-06T03:49:29;10;10;
80692;PMS5003;70055;39.436;-77.514;2024-03-06T03:51:59;12;11;
80692;PMS5003;70055;39.436;-77.514;2024-03-06T03:54:27;13;13;
80692;PMS5003;70055;39.436;-77.514;2024-03-06T03:56:59;12;11;
80692;PMS5003;70055;39.436;-77.514;2024-03-06T03:59:29;14;14;
80692;PMS5003;70055;39.436;-77.514;2024-03-06T04:01:57;10;9;
80692;PMS5003;70055;39.436;-77.514;2024-03-06T04:04:26;14;14;
80692;PMS5003;70055;39.436;-77.514;2024-03-06T04:06:54;12;12;
80692;PMS5003;70055;39.436;-77.514;2024-03-06T04:09:23;13;13;
80692;PMS5003;70055;39.436;-77.514;2024-03-06T04:11:51;15;15;
80692;PMS5003;70055;39.436;-77.514;2024-03-06T04:14:19;11;11;
80692;PMS5003;70055;39.436;-77.514;2024-03-06T04:16:47;13;13;
80692;PMS5003;70055;39.436;-77.514;2024-03-06T04:19:16;11;11;
80692;PMS5003;70055;39.436;-77.514;2024-03-06T04:21:44;13;13;
80692;PMS5003;70055;39.436;-77.514;2024-03-06T04:24:12;13;12;
80692;PMS5003;70055;39.436;-77.514;2024-03-06T04:26:40;14;14;
80692;PMS5003;70055;39.436;-77.514;2024-03-06T04:29:09;16;16;
80692;PMS5003;70055;39.436;-77.514;2024-03-06T04:31:37;13;13;
80692;PMS5003;70055;39.436;-77.514;2024-03-06T04:34:06;14;14;
80692;PMS5003;70055;39.436;-77.514;2024-03-06T04:36:35;17;16;
80692;PMS5003;70055;39.436;-77.514;2024-03-06T04:39:03;17;17;
80692;PMS5003;70055;39.436;-77.514;2024-03-06T04:41:35;14;14;
80692;PMS5003;70055;39.436;-77.514;2024-03-06T04:44:07;13;13;
80692;PMS5003;70055;39.436;-77.514;2024-03-06T04:46:36;15;14;
80692;PMS5003;70055;39.436;-77.514;2024-03-06T04:49:04;14;14;
80692;PMS5003;70055;39.436;-77.514;2024-03-06T04:51:34;16;15;
80692;PMS5003;70055;39.436;-77.514;2024-03-06T04:54:02;16;15;
80692;PMS5003;70055;39.436;-77.514;2024-03-06T04:56:30;13;13;
80692;PMS5003;70055;39.436;-77.514;2024-03-06T04:58:59;15;15;
80692;PMS5003;70055;39.436;-77.514;2024-03-06T05:01:27;16;15;
80692;PMS5003;70055;39.436;-77.514;2024-03-06T05:03:55;19;17;
80692;PMS5003;70055;39.436;-77.514;2024-03-06T05:06:23;16;16;
80692;PMS5003;70055;39.436;-77.514;2024-03-06T05:08:51;15;15;
80692;PMS5003;70055;39.436;-77.514;2024-03-06T05:11:22;16;15;
80692;PMS5003;70055;39.436;-77.514;2024-03-06T05:13:52;18;15;
80692;PMS5003;70055;39.436;-77.514;2024-03-06T05:16:20;18;18;
80692;PMS5003;70055;39.436;-77.514;2024-03-06T05:18:48;21;20;
80692;PMS5003;70055;39.436;-77.514;2024-03-06T05:21:16;18;17;
80692;PMS5003;70055;39.436;-77.514;2024-03-06T05:23:47;15;15;
80692;PMS5003;70055;39.436;-77.514;2024-03-06T05:26:15;16;16;
80692;PMS5003;70055;39.436;-77.514;2024-03-06T05:28:43;17;16;
80692;PMS5003;70055;39.436;-77.514;2024-03-06T05:31:19;21;20;
80692;PMS5003;70055;39.436;-77.514;2024-03-06T05:33:49;19;19;
80692;PMS5003;70055;39.436;-77.514;2024-03-06T05:36:17;19;19;
80692;PMS5003;70055;39.436;-77.514;2024-03-06T05:38:47;15;15;
80692;PMS5003;70055;39.436;-77.514;2024-03-06T05:41:15;17;17;
80692;PMS5003;70055;39.436;-77.514;2024-03-06T05:43:43;21;20;
80692;PMS5003;70055;39.436;-77.514;2024-03-06T05:46:10;25;24;
80692;PMS5003;70055;39.436;-77.514;2024-03-06T05:48:41;23;23;
80692;PMS5003;70055;39.436;-77.514;2024-03-06T05:51:09;16;16;
80692;PMS5003;70055;39.436;-77.514;2024-03-06T05:53:37;18;17;
80692;PMS5003;70055;39.436;-77.514;2024-03-06T05:56:06;19;18;
80692;PMS5003;70055;39.436;-77.514;2024-03-06T05:58:35;15;14;
80692;PMS5003;70055;39.436;-77.514;2024-03-06T06:01:03;21;20;
80692;PMS5003;70055;39.436;-77.514;2024-03-06T06:03:33;22;20;
80692;PMS5003;70055;39.436;-77.514;2024-03-06T06:06:03;20;20;
80692;PMS5003;70055;39.436;-77.514;2024-03-06T06:08:31;20;20;
80692;PMS5003;70055;39.436;-77.514;2024-03-06T06:10:59;19;19;
80692;PMS5003;70055;39.436;-77.514;2024-03-06T06:13:28;19;19;
80692;PMS5003;70055;39.436;-77.514;2024-03-06T06:15:57;21;20;
80692;PMS5003;70055;39.436;-77.514;2024-03-06T06:18:26;21;21;
80692;PMS5003;70055;39.436;-77.514;2024-03-06T06:20:55;21;20;
80692;PMS5003;70055;39.436;-77.514;2024-03-06T06:23:24;21;21;
80692;PMS5003;70055;39.436;-77.514;2024-03-06T06:25:53;17;17;
80692;PMS5003;70055;39.436;-77.514;2024-03-06T06:28:21;20;20;
80692;PMS5003;70055;39.436;-77.514;2024-03-06T06:30:48;19;19;
80692;PMS5003;70055;39.436;-77.514;2024-03-06T06:33:18;17;16;
80692;PMS5003;70055;39.436;-77.514;2024-03-06T06:35:46;24;23;
80692;PMS5003;70055;39.436;-77.514;2024-03-06T06:38:14;23;22;
80692;PMS5003;70055;39.436;-77.514;2024-03-06T06:40:42;18;18;
80692;PMS5003;70055;39.436;-77.514;2024-03-06T06:43:10;16;16;
80692;PMS5003;70055;39.436;-77.514;2024-03-06T06:45:38;21;20;
80692;PMS5003;70055;39.436;-77.514;2024-03-06T06:48:08;19;19;
80692;PMS5003;70055;39.436;-77.514;2024-03-06T06:50:37;19;19;
80692;PMS5003;70055;39.436;-77.514;2024-03-06T06:53:05;18;17;
80692;PMS5003;70055;39.436;-77.514;2024-03-06T06:55:33;18;17;
80692;PMS5003;70055;39.436;-77.514;2024-03-06T06:58:01;18;18;
80692;PMS5003;70055;39.436;-77.514;2024-03-06T07:00:29;14;14;
80692;PMS5003;70055;39.436;-77.514;2024-03-06T07:02:57;17;17;
80692;PMS5003;70055;39.436;-77.514;2024-03-06T07:05:25;18;16;
80692;PMS5003;70055;39.436;-77.514;2024-03-06T07:07:53;18;17;
80692;PMS5003;70055;39.436;-77.514;2024-03-06T07:10:21;16;16;
80692;PMS5003;70055;39.436;-77.514;2024-03-06T07:12:49;17;17;
80692;PMS5003;70055;39.436;-77.514;2024-03-06T07:15:17;17;17;
80692;PMS5003;70055;39.436;-77.514;2024-03-06T07:17:45;13;12;
80692;PMS5003;70055;39.436;-77.514;2024-03-06T07:20:13;17;14;
80692;PMS5003;70055;39.436;-77.514;2024-03-06T07:22:40;17;17;
80692;PMS5003;70055;39.436;-77.514;2024-03-06T07:25:09;13;13;
80692;PMS5003;70055;39.436;-77.514;2024-03-06T07:27:37;14;14;
80692;PMS5003;70055;39.436;-77.514;2024-03-06T07:30:06;17;17;
80692;PMS5003;70055;39.436;-77.514;2024-03-06T07:32:36;17;16;
80692;PMS5003;70055;39.436;-77.514;2024-03-06T07:35:04;14;14;
80692;PMS5003;70055;39.436;-77.514;2024-03-06T07:37:34;18;17;
80692;PMS5003;70055;39.436;-77.514;2024-03-06T07:40:02;18;17;
80692;PMS5003;70055;39.436;-77.514;2024-03-06T07:42:31;16;16;
80692;PMS5003;70055;39.436;-77.514;2024-03-06T07:44:59;17;17;
80692;PMS5003;70055;39.436;-77.514;2024-03-06T07:47:28;15;15;
80692;PMS5003;70055;39.436;-77.514;2024-03-06T07:49:56;18;18;
80692;PMS5003;70055;39.436;-77.514;2024-03-06T07:52:24;15;14;
80692;PMS5003;70055;39.436;-77.514;2024-03-06T07:54:52;16;16;
80692;PMS5003;70055;39.436;-77.514;2024-03-06T07:57:21;19;18;
80692;PMS5003;70055;39.436;-77.514;2024-03-06T07:59:50;19;18;
80692;PMS5003;70055;39.436;-77.514;2024-03-06T08:02:18;17;16;
80692;PMS5003;70055;39.436;-77.514;2024-03-06T08:04:47;20;20;
80692;PMS5003;70055;39.436;-77.514;2024-03-06T08:07:18;20;20;
80692;PMS5003;70055;39.436;-77.514;2024-03-06T08:09:46;21;20;
80692;PMS5003;70055;39.436;-77.514;2024-03-06T08:12:14;22;19;
80692;PMS5003;70055;39.436;-77.514;2024-03-06T08:14:42;18;17;
80692;PMS5003;70055;39.436;-77.514;2024-03-06T08:17:10;19;19;
80692;PMS5003;70055;39.436;-77.514;2024-03-06T08:19:38;19;18;
80692;PMS5003;70055;39.436;-77.514;2024-03-06T08:22:06;19;19;
80692;PMS5003;70055;39.436;-77.514;2024-03-06T08:24:34;17;16;
80692;PMS5003;70055;39.436;-77.514;2024-03-06T08:27:02;21;20;
80692;PMS5003;70055;39.436;-77.514;2024-03-06T08:29:31;18;18;
80692;PMS5003;70055;39.436;-77.514;2024-03-06T08:31:59;18;17;
80692;PMS5003;70055;39.436;-77.514;2024-03-06T08:34:26;14;14;
80692;PMS5003;70055;39.436;-77.514;2024-03-06T08:36:54;15;14;
80692;PMS5003;70055;39.436;-77.514;2024-03-06T08:39:23;18;18;
80692;PMS5003;70055;39.436;-77.514;2024-03-06T08:41:52;18;17;
80692;PMS5003;70055;39.436;-77.514;2024-03-06T08:44:20;18;18;
80692;PMS5003;70055;39.436;-77.514;2024-03-06T08:46:48;16;14;
80692;PMS5003;70055;39.436;-77.514;2024-03-06T08:49:16;14;14;
80692;PMS5003;70055;39.436;-77.514;2024-03-06T08:51:47;22;17;
80692;PMS5003;70055;39.436;-77.514;2024-03-06T08:54:15;18;17;
80692;PMS5003;70055;39.436;-77.514;2024-03-06T08:56:43;18;17;
80692;PMS5003;70055;39.436;-77.514;2024-03-06T08:59:11;21;20;
80692;PMS5003;70055;39.436;-77.514;2024-03-06T09:01:39;24;22;
80692;PMS5003;70055;39.436;-77.514;2024-03-06T09:04:07;22;21;
80692;PMS5003;70055;39.436;-77.514;2024-03-06T09:06:34;22;21;
80692;PMS5003;70055;39.436;-77.514;2024-03-06T09:09:02;24;22;
80692;PMS5003;70055;39.436;-77.514;2024-03-06T09:11:30;26;25;
80692;PMS5003;70055;39.436;-77.514;2024-03-06T09:13:59;21;17;
80692;PMS5003;70055;39.436;-77.514;2024-03-06T09:16:29;19;19;
80692;PMS5003;70055;39.436;-77.514;2024-03-06T09:18:58;21;21;
80692;PMS5003;70055;39.436;-77.514;2024-03-06T09:21:27;17;17;
80692;PMS5003;70055;39.436;-77.514;2024-03-06T09:23:55;20;18;
80692;PMS5003;70055;39.436;-77.514;2024-03-06T09:26:23;20;18;
80692;PMS5003;70055;39.436;-77.514;2024-03-06T09:28:51;20;19;
80692;PMS5003;70055;39.436;-77.514;2024-03-06T09:31:19;19;18;
80692;PMS5003;70055;39.436;-77.514;2024-03-06T09:33:47;16;16;
80692;PMS5003;70055;39.436;-77.514;2024-03-06T09:36:15;20;20;
80692;PMS5003;70055;39.436;-77.514;2024-03-06T09:38:44;20;17;
80692;PMS5003;70055;39.436;-77.514;2024-03-06T09:41:12;19;16;
80692;PMS5003;70055;39.436;-77.514;2024-03-06T09:43:39;19;19;
80692;PMS5003;70055;39.436;-77.514;2024-03-06T09:46:07;20;19;
80692;PMS5003;70055;39.436;-77.514;2024-03-06T09:48:35;21;19;
80692;PMS5003;70055;39.436;-77.514;2024-03-06T09:51:12;17;16;
80692;PMS5003;70055;39.436;-77.514;2024-03-06T09:53:42;21;20;
80692;PMS5003;70055;39.436;-77.514;2024-03-06T09:56:10;20;20;
80692;PMS5003;70055;39.436;-77.514;2024-03-06T09:58:38;17;17;
80692;PMS5003;70055;39.436;-77.514;2024-03-06T10:01:06;19;16;
80692;PMS5003;70055;39.436;-77.514;2024-03-06T10:03:36;23;20;
80692;PMS5003;70055;39.436;-77.514;2024-03-06T10:06:06;21;18;
80692;PMS5003;70055;39.436;-77.514;2024-03-06T10:08:34;19;18;
80692;PMS5003;70055;39.436;-77.514;2024-03-06T10:11:03;22;20;
80692;PMS5003;70055;39.436;-77.514;2024-03-06T10:13:31;18;16;
80692;PMS5003;70055;39.436;-77.514;2024-03-06T10:16:00;20;19;
80692;PMS5003;70055;39.436;-77.514;2024-03-06T10:18:31;19;18;
80692;PMS5003;70055;39.436;-77.514;2024-03-06T10:20:58;23;21;
80692;PMS5003;70055;39.436;-77.514;2024-03-06T10:23:29;20;19;
80692;PMS5003;70055;39.436;-77.514;2024-03-06T10:25:57;22;20;
80692;PMS5003;70055;39.436;-77.514;2024-03-06T10:28:25;17;15;
80692;PMS5003;70055;39.436;-77.514;2024-03-06T10:31:02;19;19;
80692;PMS5003;70055;39.436;-77.514;2024-03-06T10:33:31;19;19;
80692;PMS5003;70055;39.436;-77.514;2024-03-06T10:35:59;19;19;
80692;PMS5003;70055;39.436;-77.514;2024-03-06T10:38:27;23;19;
80692;PMS5003;70055;39.436;-77.514;2024-03-06T10:41:02;21;19;
80692;PMS5003;70055;39.436;-77.514;2024-03-06T10:43:31;19;19;
80692;PMS5003;70055;39.436;-77.514;2024-03-06T10:46:00;22;19;
80692;PMS5003;70055;39.436;-77.514;2024-03-06T10:48:33;18;17;
80692;PMS5003;70055;39.436;-77.514;2024-03-06T10:51:02;14;14;
80692;PMS5003;70055;39.436;-77.514;2024-03-06T10:53:32;20;18;
80692;PMS5003;70055;39.436;-77.514;2024-03-06T10:56:04;18;18;
80692;PMS5003;70055;39.436;-77.514;2024-03-06T10:58:39;21;20;
80692;PMS5003;70055;39.436;-77.514;2024-03-06T11:01:11;17;17;
80692;PMS5003;70055;39.436;-77.514;2024-03-06T11:03:40;19;19;
80692;PMS5003;70055;39.436;-77.514;2024-03-06T11:06:09;15;14;
80692;PMS5003;70055;39.436;-77.514;2024-03-06T11:08:37;17;15;
80692;PMS5003;70055;39.436;-77.514;2024-03-06T11:11:21;19;17;
80692;PMS5003;70055;39.436;-77.514;2024-03-06T11:13:52;19;18;
80692;PMS5003;70055;39.436;-77.514;2024-03-06T11:16:26;17;13;
80692;PMS5003;70055;39.436;-77.514;2024-03-06T11:19:09;20;17;
80692;PMS5003;70055;39.436;-77.514;2024-03-06T11:21:45;20;18;
80692;PMS5003;70055;39.436;-77.514;2024-03-06T11:24:16;18;14;
80692;PMS5003;70055;39.436;-77.514;2024-03-06T11:26:46;15;15;
80692;PMS5003;70055;39.436;-77.514;2024-03-06T11:29:18;15;14;
80692;PMS5003;70055;39.436;-77.514;2024-03-06T11:32:03;22;21;
80692;PMS5003;70055;39.436;-77.514;2024-03-06T11:34:34;19;18;
80692;PMS5003;70055;39.436;-77.514;2024-03-06T11:37:04;23;22;
80692;PMS5003;70055;39.436;-77.514;2024-03-06T11:39:33;16;14;
80692;PMS5003;70055;39.436;-77.514;2024-03-06T11:42:03;16;14;
80692;PMS5003;70055;39.436;-77.514;2024-03-06T11:44:31;14;14;
80692;PMS5003;70055;39.436;-77.514;2024-03-06T11:46:59;14;13;
80692;PMS5003;70055;39.436;-77.514;2024-03-06T11:49:29;18;18;
80692;PMS5003;70055;39.436;-77.514;2024-03-06T11:51:59;16;16;
80692;PMS5003;70055;39.436;-77.514;2024-03-06T11:54:29;18;16;
80692;PMS5003;70055;39.436;-77.514;2024-03-06T11:56:58;18;17;
80692;PMS5003;70055;39.436;-77.514;2024-03-06T11:59:28;18;18;
80692;PMS5003;70055;39.436;-77.514;2024-03-06T12:01:58;13;13;
80692;PMS5003;70055;39.436;-77.514;2024-03-06T12:04:29;16;16;
80692;PMS5003;70055;39.436;-77.514;2024-03-06T12:06:57;18;18;
80692;PMS5003;70055;39.436;-77.514;2024-03-06T12:09:26;13;13;
80692;PMS5003;70055;39.436;-77.514;2024-03-06T12:11:56;16;14;
80692;PMS5003;70055;39.436;-77.514;2024-03-06T12:14:23;18;17;
80692;PMS5003;70055;39.436;-77.514;2024-03-06T12:16:54;12;12;
80692;PMS5003;70055;39.436;-77.514;2024-03-06T12:19:25;16;16;
80692;PMS5003;70055;39.436;-77.514;2024-03-06T12:21:53;12;12;
80692;PMS5003;70055;39.436;-77.514;2024-03-06T12:24:21;10;10;
80692;PMS5003;70055;39.436;-77.514;2024-03-06T12:26:58;13;13;
80692;PMS5003;70055;39.436;-77.514;2024-03-06T12:29:29;16;12;
80692;PMS5003;70055;39.436;-77.514;2024-03-06T12:31:59;17;17;
80692;PMS5003;70055;39.436;-77.514;2024-03-06T12:34:27;11;11;
80692;PMS5003;70055;39.436;-77.514;2024-03-06T12:36:55;13;13;
80692;PMS5003;70055;39.436;-77.514;2024-03-06T12:39:34;13;11;
80692;PMS5003;70055;39.436;-77.514;2024-03-06T12:42:06;12;11;
80692;PMS5003;70055;39.436;-77.514;2024-03-06T12:44:37;15;14;
80692;PMS5003;70055;39.436;-77.514;2024-03-06T12:47:05;18;16;
80692;PMS5003;70055;39.436;-77.514;2024-03-06T12:49:33;12;11;
80692;PMS5003;70055;39.436;-77.514;2024-03-06T12:52:01;12;12;
80692;PMS5003;70055;39.436;-77.514;2024-03-06T12:54:29;12;12;
80692;PMS5003;70055;39.436;-77.514;2024-03-06T12:56:57;12;12;
80692;PMS5003;70055;39.436;-77.514;2024-03-06T12:59:25;10;8;
80692;PMS5003;70055;39.436;-77.514;2024-03-06T13:01:53;14;14;
80692;PMS5003;70055;39.436;-77.514;2024-03-06T13:04:21;11;11;
80692;PMS5003;70055;39.436;-77.514;2024-03-06T13:06:49;8;8;
80692;PMS5003;70055;39.436;-77.514;2024-03-06T13:09:16;15;13;
80692;PMS5003;70055;39.436;-77.514;2024-03-06T13:11:45;11;8;
80692;PMS5003;70055;39.436;-77.514;2024-03-06T13:14:15;12;12;
80692;PMS5003;70055;39.436;-77.514;2024-03-06T13:16:43;10;10;
80692;PMS5003;70055;39.436;-77.514;2024-03-06T13:19:11;13;12;
80692;PMS5003;70055;39.436;-77.514;2024-03-06T13:21:39;10;9;
80692;PMS5003;70055;39.436;-77.514;2024-03-06T13:24:08;8;8;
80692;PMS5003;70055;39.436;-77.514;2024-03-06T13:26:36;11;9;
80692;PMS5003;70055;39.436;-77.514;2024-03-06T13:29:06;10;10;
80692;PMS5003;70055;39.436;-77.514;2024-03-06T13:31:37;14;13;
80692;PMS5003;70055;39.436;-77.514;2024-03-06T13:34:05;12;9;
80692;PMS5003;70055;39.436;-77.514;2024-03-06T13:36:33;13;10;
80692;PMS5003;70055;39.436;-77.514;2024-03-06T13:39:02;11;11;
80692;PMS5003;70055;39.436;-77.514;2024-03-06T13:41:33;11;8;
80692;PMS5003;70055;39.436;-77.514;2024-03-06T13:44:02;11;10;
80692;PMS5003;70055;39.436;-77.514;2024-03-06T13:46:31;10;10;
80692;PMS5003;70055;39.436;-77.514;2024-03-06T13:49:02;10;10;
80692;PMS5003;70055;39.436;-77.514;2024-03-06T13:51:30;13;11;
80692;PMS5003;70055;39.436;-77.514;2024-03-06T13:53:59;12;10;
80692;PMS5003;70055;39.436;-77.514;2024-03-06T13:56:27;13;12;
80692;PMS5003;70055;39.436;-77.514;2024-03-06T13:58:56;13;13;
80692;PMS5003;70055;39.436;-77.514;2024-03-06T14:01:24;13;11;
80692;PMS5003;70055;39.436;-77.514;2024-03-06T14:03:54;11;10;
80692;PMS5003;70055;39.436;-77.514;2024-03-06T14:06:23;12;12;
80692;PMS5003;70055;39.436;-77.514;2024-03-06T14:08:52;8;8;
80692;PMS5003;70055;39.436;-77.514;2024-03-06T14:11:20;12;11;
80692;PMS5003;70055;39.436;-77.514;2024-03-06T14:13:48;11;9;
80692;PMS5003;70055;39.436;-77.514;2024-03-06T14:16:18;11;9;
80692;PMS5003;70055;39.436;-77.514;2024-03-06T14:18:48;6;6;
80692;PMS5003;70055;39.436;-77.514;2024-03-06T14:21:15;9;8;
80692;PMS5003;70055;39.436;-77.514;2024-03-06T14:23:45;9;8;
80692;PMS5003;70055;39.436;-77.514;2024-03-06T14:26:13;10;10;
80692;PMS5003;70055;39.436;-77.514;2024-03-06T14:28:41;8;7;
80692;PMS5003;70055;39.436;-77.514;2024-03-06T14:31:11;11;8;
80692;PMS5003;70055;39.436;-77.514;2024-03-06T14:33:39;7;7;
80692;PMS5003;70055;39.436;-77.514;2024-03-06T14:36:08;9;9;
80692;PMS5003;70055;39.436;-77.514;2024-03-06T14:38:38;6;6;
80692;PMS5003;70055;39.436;-77.514;2024-03-06T14:41:07;8;7;
80692;PMS5003;70055;39.436;-77.514;2024-03-06T14:43:37;7;6;
80692;PMS5003;70055;39.436;-77.514;2024-03-06T14:46:07;7;7;
80692;PMS5003;70055;39.436;-77.514;2024-03-06T14:48:36;9;8;
80692;PMS5003;70055;39.436;-77.514;2024-03-06T14:51:04;6;5;
80692;PMS5003;70055;39.436;-77.514;2024-03-06T14:53:34;6;6;
80692;PMS5003;70055;39.436;-77.514;2024-03-06T14:56:03;6;6;
80692;PMS5003;70055;39.436;-77.514;2024-03-06T14:58:32;5;5;
80692;PMS5003;70055;39.436;-77.514;2024-03-06T15:01:00;5;5;
80692;PMS5003;70055;39.436;-77.514;2024-03-06T15:03:29;5;5;
80692;PMS5003;70055;39.436;-77.514;2024-03-06T15:05:57;7;7;
80692;PMS5003;70055;39.436;-77.514;2024-03-06T15:08:26;6;6;
80692;PMS5003;70055;39.436;-77.514;2024-03-06T15:10:55;6;6;
80692;PMS5003;70055;39.436;-77.514;2024-03-06T15:13:23;5;5;
80692;PMS5003;70055;39.436;-77.514;2024-03-06T15:15:51;10;7;
80692;PMS5003;70055;39.436;-77.514;2024-03-06T15:18:19;9;7;
80692;PMS5003;70055;39.436;-77.514;2024-03-06T15:20:47;5;5;
80692;PMS5003;70055;39.436;-77.514;2024-03-06T15:23:18;7;6;
80692;PMS5003;70055;39.436;-77.514;2024-03-06T15:25:48;5;5;
80692;PMS5003;70055;39.436;-77.514;2024-03-06T15:28:16;5;5;
80692;PMS5003;70055;39.436;-77.514;2024-03-06T15:30:44;5;5;
80692;PMS5003;70055;39.436;-77.514;2024-03-06T15:33:13;5;5;
80692;PMS5003;70055;39.436;-77.514;2024-03-06T15:35:41;3;3;
80692;PMS5003;70055;39.436;-77.514;2024-03-06T15:38:09;4;4;
80692;PMS5003;70055;39.436;-77.514;2024-03-06T15:40:38;7;6;
80692;PMS5003;70055;39.436;-77.514;2024-03-06T15:43:07;5;5;
80692;PMS5003;70055;39.436;-77.514;2024-03-06T15:45:36;5;4;
80692;PMS5003;70055;39.436;-77.514;2024-03-06T15:48:04;6;6;
80692;PMS5003;70055;39.436;-77.514;2024-03-06T15:50:33;4;4;
80692;PMS5003;70055;39.436;-77.514;2024-03-06T15:53:00;5;5;
80692;PMS5003;70055;39.436;-77.514;2024-03-06T15:55:29;4;4;
80692;PMS5003;70055;39.436;-77.514;2024-03-06T15:57:57;6;5;
80692;PMS5003;70055;39.436;-77.514;2024-03-06T16:00:25;4;4;
80692;PMS5003;70055;39.436;-77.514;2024-03-06T16:02:53;3;3;
80692;PMS5003;70055;39.436;-77.514;2024-03-06T16:05:24;4;3;
80692;PMS5003;70055;39.436;-77.514;2024-03-06T16:07:54;5;5;